NCAR-RAP Real-Time Weather Data

Output produced by METARs form (06 May 2021  15:59 UTC)
found at http://weather.rap.ucar.edu/surface/
 
KSTC 061453Z 35011G17KT 10SM CLR 11/M03 A3020 RMK AO2 SLP240 T01111028 50006
KSTC 061353Z 32009KT 10SM CLR 09/01 A3020 RMK AO2 SLP242 T00940006
KSTC 061253Z 32011KT 10SM CLR 08/02 A3019 RMK AO2 SLP239 T00780022
KSTC 061153Z 31007KT 10SM OVC090 06/02 A3018 RMK AO2 SLP235 T00610022 10061 20022 53003
KSTC 061053Z AUTO 30009KT 10SM OVC100 06/02 A3017 RMK AO2 SLP231 T00560022
KSTC 060953Z AUTO 30005KT 10SM SCT080 BKN110 03/01 A3017 RMK AO2 SLP231 T00330006
KSTC 060853Z AUTO 31006KT 10SM SCT095 03/01 A3017 RMK AO2 SLP232 T00330006 55001
KSTC 060753Z AUTO 31006KT 10SM SCT100 04/01 A3017 RMK AO2 SLP232 T00390006
KSTC 060653Z AUTO 30009KT 10SM OVC110 06/01 A3017 RMK AO2 SLP230 T00610006
KSTC 060553Z AUTO 24004KT 10SM CLR 03/01 A3017 RMK AO2 SLP233 T00280006 10094 20028 401221011 51001
KSTC 060453Z AUTO 23004KT 10SM CLR 03/01 A3017 RMK AO2 SLP233 T00330011
KSTC 060353Z 25006KT 10SM CLR 04/01 A3018 RMK AO2 SLP235 T00390011
KSTC 060253Z 23006KT 10SM CLR 06/01 A3017 RMK AO2 SLP232 T00560011 53006
KSTC 060153Z 23005KT 10SM FEW100 07/01 A3016 RMK AO2 SLP229 T00670011